Meteo Giornale » Osservazioni meteo Italia » Catania-Fontanarossa

ore: 22:50 - Osservazioni Meteo Catania-Fontanarossa
Lat. 37° 28' N Lon. 15° 3' E Alt. 11 metri s.l.m.

sereno Europe/Rome

20 °C

Sereno

Temp. 24 Ore

16 °C

29 °C

Nord

1.8 Km/h

Dew point 15 °C

Umidità 72 %

Visibilità  10 Km

Il sole sorge alle ore 05:37

Il sole tramonta alle ore 20:20

Data e Ora Cielo e Fenomeni T °C DP °C Um. % Pres. hPa Vis. km Vento km/h
Oggi h: 22:50 sereno Sereno 20 15 72 1012 10 N 1.8
Oggi h: 22:20 sereno Sereno 19 15 77 1011 10 N 3.7
Oggi h: 21:50 sereno Sereno 21 15 68 1011 10 N 5.5
Oggi h: 21:20 sereno Sereno 21 15 68 1011 10 N 3.7
Oggi h: 20:50 sereno Sereno 21 16 73 1011 10 N 5.5
Oggi h: 20:20 sereno Sereno 22 16 68 1010 10 S/SE 7.4
Oggi h: 19:50 sereno Sereno 22 16 68 1010 10 SE 13
Oggi h: 18:50 sereno Sereno 23 16 64 1009 10 E 13
Oggi h: 17:50 sereno Sereno 24 16 60 1009 10 E/NE 20.3
Oggi h: 17:20 poco_nuvoloso Poco Nuvoloso 25 14 50 1009 10 E/NE 24
Oggi h: 16:50 poco_nuvoloso Poco Nuvoloso 25 14 50 1009 10 E/NE 24
Oggi h: 16:20 poco_nuvoloso Poco Nuvoloso 29 9 28 1009 10 O/NO 20.3
Oggi h: 15:50 poco_nuvoloso Poco Nuvoloso 29 9 28 1009 10 O 25.9
Oggi h: 15:20 poco_nuvoloso Poco Nuvoloso 29 10 30 1009 10 O/NO 25.9
Oggi h: 14:50 poco_nuvoloso Poco Nuvoloso 29 10 30 1009 10 O 27.8
Oggi h: 14:20 poco_nuvoloso Poco Nuvoloso 29 10 30 1009 10 O/NO 27.8
Oggi h: 13:50 poco_nuvoloso Poco Nuvoloso 28 9 30 1009 10 O 29.6
Oggi h: 13:20 poco_nuvoloso Poco Nuvoloso 28 10 32 1009 10 O 35.2
Oggi h: 12:50 poco_nuvoloso Poco Nuvoloso 27 10 34 1009 10 O 31.5
Oggi h: 12:20 poco_nuvoloso Poco Nuvoloso 27 10 34 1009 10 NO 27.8
Oggi h: 11:50 poco_nuvoloso Poco Nuvoloso 26 12 41 1009 10 E/NE 14.8
Oggi h: 11:20 poco_nuvoloso Poco Nuvoloso 25 11 41 1008 10 E/NE 16.7
Oggi h: 10:50 poco_nuvoloso Poco Nuvoloso 26 10 36 1008 10 O/NO 25.9
Oggi h: 10:20 poco_nuvoloso Poco Nuvoloso 25 12 44 1008 10 N 14.8
Oggi h: 09:50 sereno Sereno 25 10 38 1008 10 O/NO 35.2
Oggi h: 09:20 sereno Sereno 25 10 38 1008 10 N/NO 20.3
Oggi h: 08:50 sereno Sereno 24 11 43 1007 10 N/NO 29.6
Oggi h: 08:20 sereno Sereno 22 12 53 1007 10 O 37
Oggi h: 07:50 sereno Sereno 21 12 56 1006 10 O/SO 42.6
Oggi h: 07:20 sereno Sereno 19 12 63 1007 10 O/SO 38.8
Oggi h: 06:50 sereno Sereno 18 13 72 1007 10 SO 24
Oggi h: 06:20 sereno Sereno 17 13 77 1006 10 O/SO 22.2
Oggi h: 05:50 sereno Sereno 17 13 77 1007 10 O/SO 20.3
Oggi h: 05:20 sereno Sereno 18 13 72 1006 10 O 29.6
Oggi h: 04:50 sereno Sereno 17 13 77 1006 10 O 20.3
Oggi h: 04:20 sereno Sereno 17 12 72 1006 10 O 14.8
Oggi h: 03:50 sereno Sereno 17 13 77 1006 10 O 16.7
Oggi h: 03:20 sereno Sereno 16 12 77 1006 10 O/SO 14.8
Oggi h: 02:50 sereno Sereno 17 13 77 1006 10 O 18.5
Oggi h: 02:20 sereno Sereno 17 13 77 1006 10 O 13
Oggi h: 01:50 sereno Sereno 17 13 77 1006 10 O 18.5
Oggi h: 01:20 sereno Sereno 17 13 77 1006 10 O 20.3
Oggi h: 00:50 sereno Sereno 18 12 67 1006 10 O 18.5
Oggi h: 00:20 sereno Sereno 18 13 72 1006 10 O/SO 22.2
Ieri h: 23:50 sereno Sereno 19 13 68 1006 10 O 16.7